sensor_id;sensor_type;location;lat;lon;timestamp;pressure;altitude;pressure_sealevel;temperature
77414;BMP280;66486;49.992;19.164;2023-05-10T00:01:10;99115.66;;;7.59
77414;BMP280;66486;49.992;19.164;2023-05-10T00:03:36;99121.03;;;7.27
77414;BMP280;66486;49.992;19.164;2023-05-10T00:06:02;99124.47;;;7.35
77414;BMP280;66486;49.992;19.164;2023-05-10T00:08:28;99124.47;;;7.28
77414;BMP280;66486;49.992;19.164;2023-05-10T00:10:54;99127.16;;;7.38
77414;BMP280;66486;49.992;19.164;2023-05-10T00:13:20;99119.47;;;7.30
77414;BMP280;66486;49.992;19.164;2023-05-10T00:15:46;99118.34;;;7.41
77414;BMP280;66486;49.992;19.164;2023-05-10T00:18:12;99128.69;;;7.50
77414;BMP280;66486;49.992;19.164;2023-05-10T00:20:38;99116.41;;;7.63
77414;BMP280;66486;49.992;19.164;2023-05-10T00:23:04;99121.41;;;7.65
77414;BMP280;66486;49.992;19.164;2023-05-10T00:25:30;99106.50;;;7.49
77414;BMP280;66486;49.992;19.164;2023-05-10T00:27:56;99124.06;;;7.82
77414;BMP280;66486;49.992;19.164;2023-05-10T00:30:22;99112.59;;;7.68
77414;BMP280;66486;49.992;19.164;2023-05-10T00:32:49;99121.03;;;7.48
77414;BMP280;66486;49.992;19.164;2023-05-10T00:35:15;99113.38;;;7.43
77414;BMP280;66486;49.992;19.164;2023-05-10T00:37:41;99121.75;;;7.21
77414;BMP280;66486;49.992;19.164;2023-05-10T00:40:08;99112.56;;;7.11
77414;BMP280;66486;49.992;19.164;2023-05-10T00:42:34;99118.31;;;7.17
77414;BMP280;66486;49.992;19.164;2023-05-10T00:44:59;99108.03;;;7.43
77414;BMP280;66486;49.992;19.164;2023-05-10T00:47:26;99104.97;;;7.38
77414;BMP280;66486;49.992;19.164;2023-05-10T00:49:52;99103.84;;;7.39
77414;BMP280;66486;49.992;19.164;2023-05-10T00:52:18;99102.69;;;7.36
77414;BMP280;66486;49.992;19.164;2023-05-10T00:54:44;99103.81;;;7.42
77414;BMP280;66486;49.992;19.164;2023-05-10T00:57:10;99103.03;;;7.56
77414;BMP280;66486;49.992;19.164;2023-05-10T00:59:36;99100.00;;;7.61
77414;BMP280;66486;49.992;19.164;2023-05-10T01:02:02;99091.97;;;7.61
77414;BMP280;66486;49.992;19.164;2023-05-10T01:04:28;99101.53;;;7.27
77414;BMP280;66486;49.992;19.164;2023-05-10T01:06:56;99098.03;;;7.05
77414;BMP280;66486;49.992;19.164;2023-05-10T01:09:22;99096.16;;;7.13
77414;BMP280;66486;49.992;19.164;2023-05-10T01:11:49;99087.34;;;7.09
77414;BMP280;66486;49.992;19.164;2023-05-10T01:14:18;99083.13;;;7.08
77414;BMP280;66486;49.992;19.164;2023-05-10T01:16:46;99084.69;;;7.16
77414;BMP280;66486;49.992;19.164;2023-05-10T01:27:25;99080.50;;;7.15
77414;BMP280;66486;49.992;19.164;2023-05-10T01:36:10;99081.56;;;6.78
77414;BMP280;66486;49.992;19.164;2023-05-10T01:43:57;99073.50;;;6.71
77414;BMP280;66486;49.992;19.164;2023-05-10T01:46:35;99078.03;;;6.57
77414;BMP280;66486;49.992;19.164;2023-05-10T01:49:05;99066.19;;;6.54
77414;BMP280;66486;49.992;19.164;2023-05-10T01:51:48;99072.69;;;6.50
77414;BMP280;66486;49.992;19.164;2023-05-10T01:54:17;99068.00;;;6.29
77414;BMP280;66486;49.992;19.164;2023-05-10T01:56:47;99066.97;;;6.48
77414;BMP280;66486;49.992;19.164;2023-05-10T01:59:18;99064.59;;;6.25
77414;BMP280;66486;49.992;19.164;2023-05-10T02:01:46;99072.91;;;6.16
77414;BMP280;66486;49.992;19.164;2023-05-10T02:04:15;99064.28;;;6.44
77414;BMP280;66486;49.992;19.164;2023-05-10T02:06:43;99055.50;;;6.40
77414;BMP280;66486;49.992;19.164;2023-05-10T02:09:11;99058.72;;;6.05
77414;BMP280;66486;49.992;19.164;2023-05-10T02:11:39;99055.78;;;6.24
77414;BMP280;66486;49.992;19.164;2023-05-10T02:14:07;99054.97;;;6.10
77414;BMP280;66486;49.992;19.164;2023-05-10T02:16:35;99053.47;;;6.16
77414;BMP280;66486;49.992;19.164;2023-05-10T02:19:03;99051.53;;;6.09
77414;BMP280;66486;49.992;19.164;2023-05-10T02:21:30;99054.13;;;6.02
77414;BMP280;66486;49.992;19.164;2023-05-10T02:23:57;99037.41;;;6.12
77414;BMP280;66486;49.992;19.164;2023-05-10T02:26:25;99044.81;;;6.40
77414;BMP280;66486;49.992;19.164;2023-05-10T02:28:53;99044.81;;;6.40
77414;BMP280;66486;49.992;19.164;2023-05-10T02:31:20;99039.47;;;6.47
77414;BMP280;66486;49.992;19.164;2023-05-10T02:33:47;99037.81;;;6.11
77414;BMP280;66486;49.992;19.164;2023-05-10T02:36:15;99048.22;;;6.33
77414;BMP280;66486;49.992;19.164;2023-05-10T02:38:43;99040.16;;;6.23
77414;BMP280;66486;49.992;19.164;2023-05-10T02:41:11;99053.91;;;6.32
77414;BMP280;66486;49.992;19.164;2023-05-10T02:43:38;99050.09;;;6.33
77414;BMP280;66486;49.992;19.164;2023-05-10T02:46:06;99047.06;;;6.42
77414;BMP280;66486;49.992;19.164;2023-05-10T02:48:32;99044.00;;;6.36
77414;BMP280;66486;49.992;19.164;2023-05-10T02:51:04;99039.75;;;6.21
77414;BMP280;66486;49.992;19.164;2023-05-10T02:53:33;99047.97;;;5.91
77414;BMP280;66486;49.992;19.164;2023-05-10T02:56:04;99043.31;;;5.70
77414;BMP280;66486;49.992;19.164;2023-05-10T02:58:32;99046.25;;;5.58
77414;BMP280;66486;49.992;19.164;2023-05-10T03:01:00;99044.63;;;5.47
77414;BMP280;66486;49.992;19.164;2023-05-10T03:03:26;99054.00;;;5.77
77414;BMP280;66486;49.992;19.164;2023-05-10T03:05:52;99038.09;;;5.95
77414;BMP280;66486;49.992;19.164;2023-05-10T03:08:22;99053.88;;;5.60
77414;BMP280;66486;49.992;19.164;2023-05-10T03:16:42;99042.13;;;5.64
77414;BMP280;66486;49.992;19.164;2023-05-10T03:19:17;99034.47;;;5.63
77414;BMP280;66486;49.992;19.164;2023-05-10T03:21:50;99047.94;;;5.80
77414;BMP280;66486;49.992;19.164;2023-05-10T03:24:20;99053.97;;;5.74
77414;BMP280;66486;49.992;19.164;2023-05-10T03:26:47;99046.72;;;5.71
77414;BMP280;66486;49.992;19.164;2023-05-10T03:29:14;99040.53;;;5.56
77414;BMP280;66486;49.992;19.164;2023-05-10T03:31:40;99043.81;;;5.43
77414;BMP280;66486;49.992;19.164;2023-05-10T03:34:07;99055.13;;;5.25
77414;BMP280;66486;49.992;19.164;2023-05-10T03:36:33;99049.84;;;5.33
77414;BMP280;66486;49.992;19.164;2023-05-10T03:38:59;99046.00;;;5.77
77414;BMP280;66486;49.992;19.164;2023-05-10T03:41:25;99042.66;;;5.91
77414;BMP280;66486;49.992;19.164;2023-05-10T03:43:51;99041.41;;;5.74
77414;BMP280;66486;49.992;19.164;2023-05-10T03:46:17;99043.66;;;5.69
77414;BMP280;66486;49.992;19.164;2023-05-10T03:48:43;99039.34;;;5.54
77414;BMP280;66486;49.992;19.164;2023-05-10T03:51:09;99043.28;;;5.67
77414;BMP280;66486;49.992;19.164;2023-05-10T03:53:35;99040.94;;;5.62
77414;BMP280;66486;49.992;19.164;2023-05-10T03:56:01;99043.56;;;5.58
77414;BMP280;66486;49.992;19.164;2023-05-10T03:58:27;99044.75;;;5.61
77414;BMP280;66486;49.992;19.164;2023-05-10T04:00:53;99044.97;;;5.42
77414;BMP280;66486;49.992;19.164;2023-05-10T04:03:18;99034.81;;;5.61
77414;BMP280;66486;49.992;19.164;2023-05-10T04:05:45;99033.69;;;5.62
77414;BMP280;66486;49.992;19.164;2023-05-10T04:08:11;99044.28;;;5.48
77414;BMP280;66486;49.992;19.164;2023-05-10T04:10:37;99036.38;;;5.62
77414;BMP280;66486;49.992;19.164;2023-05-10T04:13:03;99047.50;;;5.71
77414;BMP280;66486;49.992;19.164;2023-05-10T04:15:29;99042.41;;;5.56
77414;BMP280;66486;49.992;19.164;2023-05-10T04:17:55;99041.34;;;5.64
77414;BMP280;66486;49.992;19.164;2023-05-10T04:20:21;99035.28;;;5.67
77414;BMP280;66486;49.992;19.164;2023-05-10T04:22:47;99043.41;;;5.92
77414;BMP280;66486;49.992;19.164;2023-05-10T04:25:13;99050.66;;;5.91
77414;BMP280;66486;49.992;19.164;2023-05-10T04:27:39;99049.19;;;6.01
77414;BMP280;66486;49.992;19.164;2023-05-10T04:30:05;99043.91;;;6.15
77414;BMP280;66486;49.992;19.164;2023-05-10T04:32:32;99043.56;;;6.23
77414;BMP280;66486;49.992;19.164;2023-05-10T04:34:58;99039.38;;;6.19
77414;BMP280;66486;49.992;19.164;2023-05-10T04:37:24;99040.19;;;6.33
77414;BMP280;66486;49.992;19.164;2023-05-10T04:39:50;99049.81;;;6.52
77414;BMP280;66486;49.992;19.164;2023-05-10T04:42:16;99044.47;;;6.59
77414;BMP280;66486;49.992;19.164;2023-05-10T04:44:42;99045.25;;;6.63
77414;BMP280;66486;49.992;19.164;2023-05-10T04:47:08;99044.53;;;6.77
77414;BMP280;66486;49.992;19.164;2023-05-10T04:49:34;99049.13;;;6.80
77414;BMP280;66486;49.992;19.164;2023-05-10T04:52:00;99043.78;;;7.05
77414;BMP280;66486;49.992;19.164;2023-05-10T04:54:26;99041.09;;;7.12
77414;BMP280;66486;49.992;19.164;2023-05-10T04:56:52;99043.78;;;7.15
77414;BMP280;66486;49.992;19.164;2023-05-10T04:59:18;99040.72;;;7.31
77414;BMP280;66486;49.992;19.164;2023-05-10T05:01:43;99042.63;;;7.41
77414;BMP280;66486;49.992;19.164;2023-05-10T05:04:10;99039.94;;;7.41
77414;BMP280;66486;49.992;19.164;2023-05-10T05:06:35;99030.75;;;7.52
77414;BMP280;66486;49.992;19.164;2023-05-10T05:09:02;99039.16;;;7.72
77414;BMP280;66486;49.992;19.164;2023-05-10T05:11:28;99035.34;;;7.73
77414;BMP280;66486;49.992;19.164;2023-05-10T05:13:54;99034.91;;;7.85
77414;BMP280;66486;49.992;19.164;2023-05-10T05:16:20;99040.22;;;8.03
77414;BMP280;66486;49.992;19.164;2023-05-10T05:18:46;99035.22;;;8.08
77414;BMP280;66486;49.992;19.164;2023-05-10T05:21:16;99021.69;;;8.37
77414;BMP280;66486;49.992;19.164;2023-05-10T05:23:42;99022.06;;;8.39
77414;BMP280;66486;49.992;19.164;2023-05-10T05:26:08;99029.28;;;8.49
77414;BMP280;66486;49.992;19.164;2023-05-10T05:28:35;99028.88;;;8.50
77414;BMP280;66486;49.992;19.164;2023-05-10T05:31:04;99035.72;;;8.62
77414;BMP280;66486;49.992;19.164;2023-05-10T05:33:30;99023.09;;;9.10
77414;BMP280;66486;49.992;19.164;2023-05-10T05:35:55;99030.72;;;9.19
77414;BMP280;66486;49.992;19.164;2023-05-10T05:38:22;99028.53;;;9.48
77414;BMP280;66486;49.992;19.164;2023-05-10T05:40:49;99032.25;;;9.57
77414;BMP280;66486;49.992;19.164;2023-05-10T05:43:15;99021.81;;;9.66
77414;BMP280;66486;49.992;19.164;2023-05-10T05:45:41;99023.81;;;9.92
77414;BMP280;66486;49.992;19.164;2023-05-10T05:48:07;99026.38;;;10.03
77414;BMP280;66486;49.992;19.164;2023-05-10T05:50:32;99029.06;;;10.33
77414;BMP280;66486;49.992;19.164;2023-05-10T05:52:59;99029.31;;;10.42
77414;BMP280;66486;49.992;19.164;2023-05-10T05:55:24;99028.28;;;10.59
77414;BMP280;66486;49.992;19.164;2023-05-10T05:57:51;99019.25;;;10.46
77414;BMP280;66486;49.992;19.164;2023-05-10T06:00:17;99023.41;;;10.78
77414;BMP280;66486;49.992;19.164;2023-05-10T06:02:43;99025.56;;;10.86
77414;BMP280;66486;49.992;19.164;2023-05-10T06:05:09;99033.00;;;11.02
77414;BMP280;66486;49.992;19.164;2023-05-10T06:07:35;99031.41;;;11.27
77414;BMP280;66486;49.992;19.164;2023-05-10T06:10:02;99033.03;;;11.64
77414;BMP280;66486;49.992;19.164;2023-05-10T06:12:28;99030.97;;;11.72
77414;BMP280;66486;49.992;19.164;2023-05-10T06:14:54;99022.28;;;12.00
77414;BMP280;66486;49.992;19.164;2023-05-10T06:17:20;99023.75;;;12.05
77414;BMP280;66486;49.992;19.164;2023-05-10T06:19:47;99027.44;;;12.30
77414;BMP280;66486;49.992;19.164;2023-05-10T06:22:13;99031.22;;;12.81
77414;BMP280;66486;49.992;19.164;2023-05-10T06:24:38;99033.75;;;12.88
77414;BMP280;66486;49.992;19.164;2023-05-10T06:27:05;99026.28;;;13.08
77414;BMP280;66486;49.992;19.164;2023-05-10T06:29:31;99027.41;;;13.11
77414;BMP280;66486;49.992;19.164;2023-05-10T06:31:58;99029.25;;;13.43
77414;BMP280;66486;49.992;19.164;2023-05-10T06:34:24;99026.09;;;13.85
77414;BMP280;66486;49.992;19.164;2023-05-10T06:36:50;99022.84;;;13.78
77414;BMP280;66486;49.992;19.164;2023-05-10T06:39:17;99026.66;;;13.93
77414;BMP280;66486;49.992;19.164;2023-05-10T06:41:43;99023.31;;;14.14
77414;BMP280;66486;49.992;19.164;2023-05-10T06:44:09;99021.47;;;14.36
77414;BMP280;66486;49.992;19.164;2023-05-10T06:46:35;99020.78;;;14.70
77414;BMP280;66486;49.992;19.164;2023-05-10T06:49:00;99014.06;;;15.30
77414;BMP280;66486;49.992;19.164;2023-05-10T06:51:26;99020.78;;;15.04
77414;BMP280;66486;49.992;19.164;2023-05-10T06:53:52;99015.88;;;15.55
77414;BMP280;66486;49.992;19.164;2023-05-10T06:56:18;99022.50;;;15.32
77414;BMP280;66486;49.992;19.164;2023-05-10T06:58:47;99017.25;;;15.60
77414;BMP280;66486;49.992;19.164;2023-05-10T07:01:14;99020.34;;;15.71
77414;BMP280;66486;49.992;19.164;2023-05-10T07:03:40;99027.88;;;15.76
77414;BMP280;66486;49.992;19.164;2023-05-10T07:06:06;99010.63;;;15.91
77414;BMP280;66486;49.992;19.164;2023-05-10T07:08:33;99018.09;;;16.09
77414;BMP280;66486;49.992;19.164;2023-05-10T07:11:03;99018.91;;;15.88
77414;BMP280;66486;49.992;19.164;2023-05-10T07:13:31;99017.28;;;15.69
77414;BMP280;66486;49.992;19.164;2023-05-10T07:15:58;99017.06;;;16.15
77414;BMP280;66486;49.992;19.164;2023-05-10T07:18:25;99018.28;;;16.23
77414;BMP280;66486;49.992;19.164;2023-05-10T07:20:51;99014.06;;;15.83
77414;BMP280;66486;49.992;19.164;2023-05-10T07:23:17;99029.06;;;16.05
77414;BMP280;66486;49.992;19.164;2023-05-10T07:25:49;99016.47;;;16.20
77414;BMP280;66486;49.992;19.164;2023-05-10T07:28:16;99014.69;;;16.45
77414;BMP280;66486;49.992;19.164;2023-05-10T07:30:43;99024.41;;;17.09
77414;BMP280;66486;49.992;19.164;2023-05-10T07:33:09;99018.50;;;17.11
77414;BMP280;66486;49.992;19.164;2023-05-10T07:35:36;99010.19;;;17.32
77414;BMP280;66486;49.992;19.164;2023-05-10T07:38:02;99010.03;;;17.27
77414;BMP280;66486;49.992;19.164;2023-05-10T07:40:29;99006.28;;;17.15
77414;BMP280;66486;49.992;19.164;2023-05-10T07:42:55;99010.38;;;18.03
77414;BMP280;66486;49.992;19.164;2023-05-10T07:45:21;99004.47;;;18.52
77414;BMP280;66486;49.992;19.164;2023-05-10T07:47:47;99011.53;;;18.11
77414;BMP280;66486;49.992;19.164;2023-05-10T07:50:14;99002.53;;;18.20
77414;BMP280;66486;49.992;19.164;2023-05-10T07:52:40;99000.69;;;18.49
77414;BMP280;66486;49.992;19.164;2023-05-10T07:55:06;99003.88;;;18.86
77414;BMP280;66486;49.992;19.164;2023-05-10T07:57:34;98998.28;;;18.51
77414;BMP280;66486;49.992;19.164;2023-05-10T08:00:00;99006.97;;;18.79
77414;BMP280;66486;49.992;19.164;2023-05-10T08:02:26;98986.06;;;18.23
77414;BMP280;66486;49.992;19.164;2023-05-10T08:04:52;98991.13;;;18.54
77414;BMP280;66486;49.992;19.164;2023-05-10T08:07:18;98999.84;;;19.11
77414;BMP280;66486;49.992;19.164;2023-05-10T08:09:44;98996.19;;;19.58
77414;BMP280;66486;49.992;19.164;2023-05-10T08:12:10;99005.50;;;19.86
77414;BMP280;66486;49.992;19.164;2023-05-10T08:14:36;99003.69;;;19.97
77414;BMP280;66486;49.992;19.164;2023-05-10T08:17:03;98991.53;;;19.64
77414;BMP280;66486;49.992;19.164;2023-05-10T08:19:29;98999.00;;;19.19
77414;BMP280;66486;49.992;19.164;2023-05-10T08:21:55;98993.38;;;19.23
77414;BMP280;66486;49.992;19.164;2023-05-10T08:24:22;98999.00;;;19.34
77414;BMP280;66486;49.992;19.164;2023-05-10T08:26:48;98983.84;;;19.47
77414;BMP280;66486;49.992;19.164;2023-05-10T08:29:14;98990.66;;;19.87
77414;BMP280;66486;49.992;19.164;2023-05-10T08:31:40;98986.03;;;19.43
77414;BMP280;66486;49.992;19.164;2023-05-10T08:34:07;98979.28;;;19.74
77414;BMP280;66486;49.992;19.164;2023-05-10T08:36:32;98984.16;;;19.06
77414;BMP280;66486;49.992;19.164;2023-05-10T08:38:59;98990.44;;;19.12
77414;BMP280;66486;49.992;19.164;2023-05-10T08:41:25;98983.31;;;19.43
77414;BMP280;66486;49.992;19.164;2023-05-10T08:43:54;98986.03;;;19.78
77414;BMP280;66486;49.992;19.164;2023-05-10T08:46:21;98986.56;;;20.17
77414;BMP280;66486;49.992;19.164;2023-05-10T08:48:49;98990.44;;;20.51
77414;BMP280;66486;49.992;19.164;2023-05-10T08:51:36;98989.13;;;20.66
77414;BMP280;66486;49.992;19.164;2023-05-10T08:54:06;98991.72;;;21.06
77414;BMP280;66486;49.992;19.164;2023-05-10T08:56:32;98985.31;;;20.84
77414;BMP280;66486;49.992;19.164;2023-05-10T08:58:58;98987.47;;;20.74
77414;BMP280;66486;49.992;19.164;2023-05-10T09:01:25;98990.56;;;21.13
77414;BMP280;66486;49.992;19.164;2023-05-10T09:03:52;98981.91;;;20.94
77414;BMP280;66486;49.992;19.164;2023-05-10T09:06:19;98981.66;;;20.67
77414;BMP280;66486;49.992;19.164;2023-05-10T09:08:45;98976.06;;;21.07
77414;BMP280;66486;49.992;19.164;2023-05-10T09:11:12;98987.69;;;21.27
77414;BMP280;66486;49.992;19.164;2023-05-10T09:13:38;98982.88;;;21.17
77414;BMP280;66486;49.992;19.164;2023-05-10T09:16:05;98982.72;;;21.31
77414;BMP280;66486;49.992;19.164;2023-05-10T09:18:31;98981.75;;;21.71
77414;BMP280;66486;49.992;19.164;2023-05-10T09:20:57;98979.63;;;20.87
77414;BMP280;66486;49.992;19.164;2023-05-10T09:23:23;98977.97;;;20.95
77414;BMP280;66486;49.992;19.164;2023-05-10T09:26:04;98988.00;;;21.09
77414;BMP280;66486;49.992;19.164;2023-05-10T09:28:49;98973.47;;;20.92
77414;BMP280;66486;49.992;19.164;2023-05-10T09:31:16;98978.94;;;21.23
77414;BMP280;66486;49.992;19.164;2023-05-10T09:33:45;98978.50;;;21.73
77414;BMP280;66486;49.992;19.164;2023-05-10T09:36:12;98970.66;;;21.97
77414;BMP280;66486;49.992;19.164;2023-05-10T09:38:49;98979.66;;;21.55
77414;BMP280;66486;49.992;19.164;2023-05-10T09:41:21;98965.47;;;22.15
77414;BMP280;66486;49.992;19.164;2023-05-10T09:43:47;98974.94;;;22.03
77414;BMP280;66486;49.992;19.164;2023-05-10T09:46:14;98964.47;;;22.07
77414;BMP280;66486;49.992;19.164;2023-05-10T09:48:46;98972.88;;;21.87
77414;BMP280;66486;49.992;19.164;2023-05-10T09:51:23;98971.56;;;21.77
77414;BMP280;66486;49.992;19.164;2023-05-10T09:56:36;98971.06;;;21.79
77414;BMP280;66486;49.992;19.164;2023-05-10T09:59:05;98974.41;;;21.52
77414;BMP280;66486;49.992;19.164;2023-05-10T10:01:31;98963.56;;;21.74
77414;BMP280;66486;49.992;19.164;2023-05-10T10:03:58;98944.63;;;21.65
77414;BMP280;66486;49.992;19.164;2023-05-10T10:06:24;98956.78;;;21.58
77414;BMP280;66486;49.992;19.164;2023-05-10T10:08:51;98961.44;;;21.94
77414;BMP280;66486;49.992;19.164;2023-05-10T10:11:17;98949.34;;;21.64
77414;BMP280;66486;49.992;19.164;2023-05-10T10:13:43;98943.63;;;21.68
77414;BMP280;66486;49.992;19.164;2023-05-10T10:16:09;98952.53;;;21.20
77414;BMP280;66486;49.992;19.164;2023-05-10T10:18:36;98952.34;;;20.93
77414;BMP280;66486;49.992;19.164;2023-05-10T10:21:08;98946.16;;;21.34
77414;BMP280;66486;49.992;19.164;2023-05-10T10:23:35;98936.31;;;21.48
77414;BMP280;66486;49.992;19.164;2023-05-10T10:26:03;98943.91;;;21.75
77414;BMP280;66486;49.992;19.164;2023-05-10T10:31:39;98931.66;;;22.29
77414;BMP280;66486;49.992;19.164;2023-05-10T10:34:07;98930.22;;;22.67
77414;BMP280;66486;49.992;19.164;2023-05-10T10:36:46;98921.22;;;22.50
77414;BMP280;66486;49.992;19.164;2023-05-10T10:39:13;98918.94;;;22.32
77414;BMP280;66486;49.992;19.164;2023-05-10T10:41:49;98922.44;;;22.55
77414;BMP280;66486;49.992;19.164;2023-05-10T10:55:07;98915.97;;;22.35
77414;BMP280;66486;49.992;19.164;2023-05-10T11:00:27;98909.72;;;22.96
77414;BMP280;66486;49.992;19.164;2023-05-10T11:07:52;98902.09;;;21.86
77414;BMP280;66486;49.992;19.164;2023-05-10T11:10:21;98909.66;;;22.02
77414;BMP280;66486;49.992;19.164;2023-05-10T11:15:32;98907.44;;;22.22
77414;BMP280;66486;49.992;19.164;2023-05-10T11:17:58;98899.72;;;22.43
77414;BMP280;66486;49.992;19.164;2023-05-10T11:20:28;98893.22;;;22.18
77414;BMP280;66486;49.992;19.164;2023-05-10T11:23:14;98895.78;;;22.66
77414;BMP280;66486;49.992;19.164;2023-05-10T11:25:45;98893.31;;;22.79
77414;BMP280;66486;49.992;19.164;2023-05-10T11:28:17;98902.75;;;23.00
77414;BMP280;66486;49.992;19.164;2023-05-10T11:30:44;98901.53;;;22.79
77414;BMP280;66486;49.992;19.164;2023-05-10T11:33:15;98902.00;;;22.61
77414;BMP280;66486;49.992;19.164;2023-05-10T11:35:42;98893.31;;;22.79
77414;BMP280;66486;49.992;19.164;2023-05-10T11:38:10;98887.44;;;23.27
77414;BMP280;66486;49.992;19.164;2023-05-10T11:40:37;98892.28;;;22.82
77414;BMP280;66486;49.992;19.164;2023-05-10T11:43:04;98898.25;;;22.48
77414;BMP280;66486;49.992;19.164;2023-05-10T11:45:35;98896.78;;;22.47
77414;BMP280;66486;49.992;19.164;2023-05-10T11:48:02;98895.53;;;22.97
77414;BMP280;66486;49.992;19.164;2023-05-10T11:50:28;98910.22;;;22.94
77414;BMP280;66486;49.992;19.164;2023-05-10T11:52:56;98891.00;;;22.83
77414;BMP280;66486;49.992;19.164;2023-05-10T11:55:22;98895.25;;;22.95
77414;BMP280;66486;49.992;19.164;2023-05-10T11:57:54;98892.66;;;23.36
77414;BMP280;66486;49.992;19.164;2023-05-10T12:00:20;98892.22;;;23.10
77414;BMP280;66486;49.992;19.164;2023-05-10T12:02:48;98903.91;;;23.32
77414;BMP280;66486;49.992;19.164;2023-05-10T12:05:14;98890.00;;;22.20
77414;BMP280;66486;49.992;19.164;2023-05-10T12:07:40;98889.44;;;21.99
77414;BMP280;66486;49.992;19.164;2023-05-10T12:10:07;98889.88;;;21.81
77414;BMP280;66486;49.992;19.164;2023-05-10T12:12:41;98893.28;;;21.60
77414;BMP280;66486;49.992;19.164;2023-05-10T12:15:12;98886.06;;;21.57
77414;BMP280;66486;49.992;19.164;2023-05-10T12:17:43;98888.84;;;21.73
77414;BMP280;66486;49.992;19.164;2023-05-10T12:20:17;98886.47;;;22.08
77414;BMP280;66486;49.992;19.164;2023-05-10T12:25:18;98882.22;;;22.02
77414;BMP280;66486;49.992;19.164;2023-05-10T12:27:50;98883.28;;;22.32
77414;BMP280;66486;49.992;19.164;2023-05-10T12:30:24;98885.53;;;22.33
77414;BMP280;66486;49.992;19.164;2023-05-10T12:32:51;98883.53;;;22.39
77414;BMP280;66486;49.992;19.164;2023-05-10T12:35:18;98884.78;;;22.55
77414;BMP280;66486;49.992;19.164;2023-05-10T12:37:50;98888.28;;;22.78
77414;BMP280;66486;49.992;19.164;2023-05-10T12:40:16;98876.53;;;22.22
77414;BMP280;66486;49.992;19.164;2023-05-10T12:42:43;98869.06;;;22.28
77414;BMP280;66486;49.992;19.164;2023-05-10T12:45:10;98879.78;;;22.26
77414;BMP280;66486;49.992;19.164;2023-05-10T12:47:37;98873.78;;;22.22
77414;BMP280;66486;49.992;19.164;2023-05-10T12:50:04;98874.28;;;22.15
77414;BMP280;66486;49.992;19.164;2023-05-10T12:52:31;98868.84;;;22.43
77414;BMP280;66486;49.992;19.164;2023-05-10T12:54:58;98857.88;;;22.65
77414;BMP280;66486;49.992;19.164;2023-05-10T12:57:25;98863.34;;;22.59
77414;BMP280;66486;49.992;19.164;2023-05-10T12:59:51;98857.59;;;23.01
77414;BMP280;66486;49.992;19.164;2023-05-10T13:02:17;98860.78;;;23.05
77414;BMP280;66486;49.992;19.164;2023-05-10T13:04:47;98865.31;;;22.81
77414;BMP280;66486;49.992;19.164;2023-05-10T13:07:13;98870.34;;;22.71
77414;BMP280;66486;49.992;19.164;2023-05-10T13:09:39;98867.06;;;22.23
77414;BMP280;66486;49.992;19.164;2023-05-10T13:12:05;98860.81;;;22.11
77414;BMP280;66486;49.992;19.164;2023-05-10T13:14:31;98868.06;;;22.14
77414;BMP280;66486;49.992;19.164;2023-05-10T13:16:57;98858.59;;;22.21
77414;BMP280;66486;49.992;19.164;2023-05-10T13:19:24;98855.03;;;21.87
77414;BMP280;66486;49.992;19.164;2023-05-10T13:21:50;98854.16;;;21.59
77414;BMP280;66486;49.992;19.164;2023-05-10T13:24:16;98856.72;;;21.68
77414;BMP280;66486;49.992;19.164;2023-05-10T13:26:43;98844.97;;;21.57
77414;BMP280;66486;49.992;19.164;2023-05-10T13:29:09;98847.25;;;21.75
77414;BMP280;66486;49.992;19.164;2023-05-10T13:31:35;98843.63;;;22.11
77414;BMP280;66486;49.992;19.164;2023-05-10T13:34:01;98837.88;;;22.09
77414;BMP280;66486;49.992;19.164;2023-05-10T13:36:28;98840.41;;;22.40
77414;BMP280;66486;49.992;19.164;2023-05-10T13:38:54;98831.91;;;22.38
77414;BMP280;66486;49.992;19.164;2023-05-10T13:41:20;98831.63;;;22.03
77414;BMP280;66486;49.992;19.164;2023-05-10T13:43:46;98833.38;;;21.84
77414;BMP280;66486;49.992;19.164;2023-05-10T13:46:14;98822.16;;;21.87
77414;BMP280;66486;49.992;19.164;2023-05-10T13:48:40;98820.22;;;22.26
77414;BMP280;66486;49.992;19.164;2023-05-10T13:51:06;98824.94;;;22.31
77414;BMP280;66486;49.992;19.164;2023-05-10T13:53:32;98828.41;;;22.04
77414;BMP280;66486;49.992;19.164;2023-05-10T13:55:59;98823.59;;;21.72
77414;BMP280;66486;49.992;19.164;2023-05-10T13:58:24;98820.38;;;21.79
77414;BMP280;66486;49.992;19.164;2023-05-10T14:00:51;98819.19;;;21.91
77414;BMP280;66486;49.992;19.164;2023-05-10T14:03:17;98817.44;;;21.99
77414;BMP280;66486;49.992;19.164;2023-05-10T14:05:43;98811.47;;;21.95
77414;BMP280;66486;49.992;19.164;2023-05-10T14:08:10;98811.97;;;22.15
77414;BMP280;66486;49.992;19.164;2023-05-10T14:10:36;98814.97;;;22.28
77414;BMP280;66486;49.992;19.164;2023-05-10T14:13:03;98812.41;;;21.75
77414;BMP280;66486;49.992;19.164;2023-05-10T14:15:29;98821.56;;;21.67
77414;BMP280;66486;49.992;19.164;2023-05-10T14:17:55;98807.50;;;21.26
77414;BMP280;66486;49.992;19.164;2023-05-10T14:20:21;98811.31;;;21.51
77414;BMP280;66486;49.992;19.164;2023-05-10T14:22:47;98814.53;;;21.44
77414;BMP280;66486;49.992;19.164;2023-05-10T14:25:14;98810.81;;;21.52
77414;BMP280;66486;49.992;19.164;2023-05-10T14:27:40;98813.28;;;21.45
77414;BMP280;66486;49.992;19.164;2023-05-10T14:30:06;98815.56;;;21.52
77414;BMP280;66486;49.992;19.164;2023-05-10T14:32:32;98810.13;;;21.74
77414;BMP280;66486;49.992;19.164;2023-05-10T14:34:58;98809.00;;;22.02
77414;BMP280;66486;49.992;19.164;2023-05-10T14:37:25;98821.44;;;22.25
77414;BMP280;66486;49.992;19.164;2023-05-10T14:39:51;98816.22;;;22.22
77414;BMP280;66486;49.992;19.164;2023-05-10T14:42:17;98804.00;;;22.23
77414;BMP280;66486;49.992;19.164;2023-05-10T14:44:43;98810.97;;;22.13
77414;BMP280;66486;49.992;19.164;2023-05-10T14:47:09;98800.25;;;21.98
77414;BMP280;66486;49.992;19.164;2023-05-10T14:49:35;98797.47;;;21.82
77414;BMP280;66486;49.992;19.164;2023-05-10T14:52:01;98809.00;;;22.02
77414;BMP280;66486;49.992;19.164;2023-05-10T14:54:27;98801.00;;;22.04
77414;BMP280;66486;49.992;19.164;2023-05-10T14:56:53;98793.78;;;22.07